Terminal Aerodrome Forecast
Issued by NWS Melbourne, FL

Home | Current Version | Previous Version | Text Only | Print | Product List | Glossary On
Versions: 1 2 3 4 5 6 7 8 9 10 11 12 13
000
FTUS42 KMLB 222300
TAFVRB
TAF
KVRB 222340Z 2300/2324 15003KT P6SM FEW050 BKN250
     FM230700 19003KT 4SM BR SCT003 OVC008
     FM231400 16008KT P6SM SCT010 BKN025 BKN250
     FM231600 15011KT P6SM SCT040 SCT080 BKN250=

USA.gov is the U.S. government's official web portal to all federal, state and local government web resources and services.